Time;durP1;ratioP1;P1;durP2;ratioP2;P2;SDS_P1;SDS_P2;PMS_P1;PMS_P2;Temp;Humidity;BMP_temperature;BMP_pressure;BME280_temperature;BME280_humidity;BME280_pressure;Samples;Min_cycle;Max_cycle;Signal;HPM_P1;HPM_P2
2021/05/18 00:01:37;;;;;;;3.40;0.70;;;;;;;13.55;59.23;97357.38;8285294;28;20206;-66
2021/05/18 00:05:41;;;;;;;2.87;0.77;;;;;;;13.63;58.89;97361.16;8286093;28;20233;-67
2021/05/18 00:14:04;;;;;;;1.27;0.70;;;;;;;13.61;58.95;97369.97;8318004;28;20386;-66
2021/05/18 00:18:08;;;;;;;1.20;0.70;;;;;;;13.34;59.96;97370.03;8318530;28;20201;-66
2021/05/18 00:22:10;;;;;;;3.60;0.87;;;;;;;13.31;60.36;97371.09;8316991;28;20400;-65
2021/05/18 00:26:13;;;;;;;2.10;0.80;;;;;;;13.54;59.75;97381.75;8317139;28;20219;-67
2021/05/18 00:30:16;;;;;;;1.77;1.00;;;;;;;13.52;59.58;97391.41;8318192;28;20228;-66
2021/05/18 00:34:20;;;;;;;1.80;0.80;;;;;;;13.61;59.37;97390.81;8318158;28;20201;-66
2021/05/18 00:38:22;;;;;;;2.17;0.70;;;;;;;13.58;59.42;97391.84;8317817;28;20204;-66
2021/05/18 00:42:25;;;;;;;2.43;0.80;;;;;;;13.59;59.33;97397.88;8318033;28;20215;-66
2021/05/18 00:46:29;;;;;;;1.33;0.90;;;;;;;13.54;59.48;97398.19;8317594;28;20204;-66
2021/05/18 00:50:32;;;;;;;1.63;1.00;;;;;;;13.60;59.49;97404.75;8317626;28;20248;-66
2021/05/18 00:54:39;;;;;;;3.60;1.07;;;;;;;13.61;59.54;97403.81;8317900;28;20512;-66
2021/05/18 00:58:42;;;;;;;2.60;0.80;;;;;;;13.62;59.40;97408.09;8317727;28;20507;-65
2021/05/18 01:02:46;;;;;;;2.30;0.97;;;;;;;13.65;59.25;97403.53;8299218;28;20208;-66
2021/05/18 01:06:49;;;;;;;3.67;1.10;;;;;;;13.51;59.80;97410.56;8284697;28;20241;-66
2021/05/18 01:10:52;;;;;;;2.53;1.10;;;;;;;13.54;59.79;97411.19;8284513;28;20234;-66
2021/05/18 01:14:54;;;;;;;2.63;1.37;;;;;;;13.56;59.70;97417.13;8284855;28;20209;-66
2021/05/18 01:18:57;;;;;;;2.50;1.20;;;;;;;13.56;59.77;97416.31;8284695;28;20210;-66
2021/05/18 01:23:01;;;;;;;2.10;1.30;;;;;;;13.62;59.56;97421.94;8271318;28;20245;-66
2021/05/18 01:27:03;;;;;;;3.63;1.23;;;;;;;13.68;59.70;97425.91;8252405;28;20209;-66
2021/05/18 01:31:07;;;;;;;2.43;1.07;;;;;;;13.68;59.23;97431.09;8252289;28;20552;-66
2021/05/18 01:35:10;;;;;;;2.77;1.00;;;;;;;13.56;59.88;97440.53;8251876;28;20210;-66
2021/05/18 01:39:41;;;;;;;2.13;1.00;;;;;;;13.54;59.70;97441.59;8251788;28;20206;-66
2021/05/18 01:43:50;;;;;;;2.00;1.20;;;;;;;13.44;60.20;97446.53;8252091;28;20519;-66
2021/05/18 01:47:56;;;;;;;3.50;1.30;;;;;;;13.40;59.65;97445.91;8251970;28;20214;-66
2021/05/18 01:52:01;;;;;;;2.20;1.40;;;;;;;13.46;59.63;97444.66;8251538;28;20230;-66
2021/05/18 01:56:17;;;;;;;2.37;1.30;;;;;;;13.57;59.51;97449.16;8251625;28;20202;-66
2021/05/18 02:00:22;;;;;;;2.43;1.20;;;;;;;13.60;59.02;97457.63;8251516;28;20207;-66
2021/05/18 02:04:26;;;;;;;3.70;1.20;;;;;;;13.42;59.84;97458.78;8282644;28;20540;-66
2021/05/18 02:08:28;;;;;;;1.57;0.90;;;;;;;13.65;59.12;97460.75;8284083;28;20236;-66
2021/05/18 02:12:33;;;;;;;1.93;1.13;;;;;;;13.65;59.07;97463.38;8283393;28;20284;-66
2021/05/18 02:16:38;;;;;;;1.67;1.13;;;;;;;13.54;59.31;97473.63;8283403;28;20202;-66
2021/05/18 02:20:46;;;;;;;2.30;1.00;;;;;;;13.59;59.57;97481.13;8283520;28;20205;-66
2021/05/18 02:25:00;;;;;;;3.80;1.20;;;;;;;13.62;58.91;97484.38;8283528;28;20201;-66
2021/05/18 02:29:04;;;;;;;3.60;1.00;;;;;;;13.63;58.91;97493.84;8283577;28;20409;-66
2021/05/18 02:33:07;;;;;;;3.87;1.20;;;;;;;13.60;58.73;97488.00;8286609;28;20201;-66
2021/05/18 02:37:09;;;;;;;3.27;1.20;;;;;;;13.40;59.77;97490.13;8288786;28;20212;-66
2021/05/18 02:41:12;;;;;;;2.47;1.20;;;;;;;13.47;59.57;97493.16;8289151;28;20216;-66
2021/05/18 02:45:24;;;;;;;2.50;1.20;;;;;;;13.67;59.29;97491.91;8288895;28;20210;-66
2021/05/18 02:49:27;;;;;;;3.50;1.20;;;;;;;13.59;59.11;97491.53;8288774;28;20271;-66
2021/05/18 02:53:29;;;;;;;2.07;1.20;;;;;;;13.67;58.92;97497.94;8288520;28;20201;-66
2021/05/18 02:57:33;;;;;;;3.93;1.10;;;;;;;13.64;59.00;97498.09;8288469;28;20367;-66
2021/05/18 03:01:37;;;;;;;2.67;1.20;;;;;;;13.64;58.86;97497.28;8288494;28;20397;-65
2021/05/18 03:05:39;;;;;;;2.03;1.30;;;;;;;13.59;59.40;97501.94;8288398;28;20222;-66
2021/05/18 03:09:42;;;;;;;1.73;1.00;;;;;;;13.77;58.67;97505.97;8288222;28;20423;-65
2021/05/18 03:13:44;;;;;;;3.37;1.30;;;;;;;13.72;58.38;97508.03;8287927;28;20494;-66
2021/05/18 03:17:48;;;;;;;2.60;1.20;;;;;;;13.77;58.64;97510.34;8288112;28;20221;-66
2021/05/18 03:21:50;;;;;;;2.60;1.10;;;;;;;13.67;58.56;97503.13;8297294;28;20205;-66
2021/05/18 03:25:53;;;;;;;2.50;1.33;;;;;;;13.71;58.58;97511.56;8303053;28;20203;-66
2021/05/18 03:29:57;;;;;;;2.37;1.27;;;;;;;13.57;58.79;97512.44;8305817;28;20221;-66
2021/05/18 03:38:26;;;;;;;3.27;1.30;;;;;;;13.74;58.72;97510.53;8300843;28;20208;-66
2021/05/18 03:42:32;;;;;;;1.87;1.30;;;;;;;13.70;58.78;97515.09;8320104;28;20524;-66
2021/05/18 04:04:02;;;;;;;3.50;1.40;;;;;;;13.71;58.52;97516.78;8286508;28;20202;-66
2021/05/18 04:12:41;;;;;;;4.20;1.30;;;;;;;13.62;58.78;97528.59;8286765;28;20230;-66
2021/05/18 04:16:55;;;;;;;2.40;1.27;;;;;;;13.63;58.79;97532.03;8286240;28;20214;-66
2021/05/18 04:21:02;;;;;;;3.37;1.20;;;;;;;13.66;58.91;97530.06;8286029;28;20210;-66
2021/05/18 04:51:29;;;;;;;2.83;1.10;;;;;;;13.75;58.38;97554.69;8284997;28;20551;-66
2021/05/18 04:59:54;;;;;;;2.83;1.13;;;;;;;13.76;58.52;97565.91;8285077;28;20205;-65
2021/05/18 05:04:10;;;;;;;1.73;1.00;;;;;;;13.85;58.09;97566.16;8284572;28;20197;-66
2021/05/18 05:08:16;;;;;;;1.40;0.83;;;;;;;13.88;57.93;97581.59;8285026;28;20329;-65
2021/05/18 05:12:41;;;;;;;2.03;0.80;;;;;;;13.77;58.09;97575.41;8284559;28;20236;-66
2021/05/18 05:16:44;;;;;;;1.77;1.13;;;;;;;13.78;58.08;97580.50;8284957;28;20209;-65
2021/05/18 05:20:46;;;;;;;1.97;0.80;;;;;;;13.80;57.91;97588.19;8284261;28;20228;-66
2021/05/18 05:24:49;;;;;;;1.30;0.80;;;;;;;13.83;58.25;97596.66;8284859;28;20380;-68
2021/05/18 05:28:51;;;;;;;6.03;3.27;;;;;;;13.66;58.41;97604.69;8284422;28;20409;-65
2021/05/18 05:32:54;;;;;;;5.13;1.90;;;;;;;13.78;58.18;97603.09;8285409;28;20232;-66
2021/05/18 05:36:57;;;;;;;2.63;1.30;;;;;;;13.78;58.15;97603.09;8299147;28;20219;-67
2021/05/18 05:41:00;;;;;;;1.83;1.03;;;;;;;13.91;57.88;97610.97;8310606;28;20197;-66
2021/05/18 05:45:02;;;;;;;2.97;1.60;;;;;;;13.96;57.80;97604.53;8283837;28;20202;-66
2021/05/18 05:49:06;;;;;;;1.87;1.00;;;;;;;14.00;57.38;97612.97;8284063;28;20485;-67
2021/05/18 05:53:08;;;;;;;2.40;1.17;;;;;;;13.96;57.48;97614.94;8309527;28;20222;-66
2021/05/18 05:57:11;;;;;;;2.63;1.10;;;;;;;14.04;58.01;97614.44;8283945;28;20209;-66
2021/05/18 06:01:13;;;;;;;1.70;0.97;;;;;;;13.99;57.27;97619.97;8286594;28;20197;-66
2021/05/18 06:05:17;;;;;;;4.27;1.27;;;;;;;14.04;57.43;97622.25;8283132;28;20233;-66
2021/05/18 06:09:19;;;;;;;2.30;1.10;;;;;;;14.17;57.20;97624.94;8316720;28;20461;-66
2021/05/18 06:48:43;;;;;;;1.93;0.93;;;;;;;14.65;56.13;97640.91;8289126;28;20381;-67
2021/05/18 06:52:46;;;;;;;2.30;1.30;;;;;;;14.53;56.23;97645.13;8288765;28;20229;-67
2021/05/18 06:56:53;;;;;;;2.33;1.03;;;;;;;14.66;55.57;97651.25;8288381;28;20209;-66
2021/05/18 07:00:55;;;;;;;3.27;1.40;;;;;;;14.64;55.92;97657.47;8284435;28;20198;-67
2021/05/18 07:04:58;;;;;;;3.70;1.30;;;;;;;14.70;55.31;97661.44;8256238;28;20222;-67
2021/05/18 07:09:00;;;;;;;1.97;1.10;;;;;;;14.74;54.96;97661.16;8261495;28;20228;-67
2021/05/18 07:13:04;;;;;;;3.27;1.50;;;;;;;14.87;54.13;97663.81;8312674;28;20225;-67
2021/05/18 07:17:06;;;;;;;3.37;1.00;;;;;;;15.01;54.03;97661.09;8293442;28;20209;-67
2021/05/18 07:21:09;;;;;;;2.30;1.50;;;;;;;14.89;54.26;97661.06;8273900;28;20198;-67
2021/05/18 07:25:12;;;;;;;2.13;1.10;;;;;;;14.88;54.40;97667.22;8281036;28;20198;-68
2021/05/18 07:29:15;;;;;;;3.50;1.60;;;;;;;15.85;51.96;97656.25;8285979;28;20201;-67
2021/05/18 07:33:17;;;;;;;3.53;1.57;;;;;;;16.22;50.98;97658.81;8287800;28;20236;-68
2021/05/18 07:37:20;;;;;;;2.73;1.47;;;;;;;16.77;48.42;97654.81;8282199;28;20214;-68
2021/05/18 07:41:23;;;;;;;4.37;1.80;;;;;;;17.47;46.83;97662.66;8279557;28;20198;-67
2021/05/18 07:45:27;;;;;;;4.03;2.00;;;;;;;16.59;47.76;97648.31;8287683;28;20260;-66
2021/05/18 07:49:32;;;;;;;4.00;1.43;;;;;;;16.54;49.60;97658.28;8286096;28;20198;-75
2021/05/18 08:07:03;;;;;;;6.33;1.10;;;;;;;17.31;47.93;97661.22;8255171;28;20303;-74
2021/05/18 08:11:05;;;;;;;6.37;1.10;;;;;;;17.13;47.56;97649.53;8286097;28;20240;-74
2021/05/18 08:15:37;;;;;;;3.57;1.30;;;;;;;17.15;47.55;97660.72;8285797;28;20213;-72
2021/05/18 10:36:28;;;;;;;4.47;0.70;;;;;;;18.98;46.79;97640.94;8288629;28;20194;-74
2021/05/18 10:40:34;;;;;;;2.17;0.83;;;;;;;19.63;45.73;97632.84;8287106;28;20202;-77
2021/05/18 10:44:54;;;;;;;3.13;0.83;;;;;;;20.01;46.45;97629.53;8289475;28;20186;-73
2021/05/18 10:49:05;;;;;;;1.90;0.60;;;;;;;20.07;43.74;97612.41;8289468;28;20190;-79
2021/05/18 10:53:20;;;;;;;8.93;1.00;;;;;;;20.54;45.44;97611.72;8262777;28;20228;-76
2021/05/18 10:57:33;;;;;;;1.73;0.50;;;;;;;20.46;44.50;97613.22;8287818;28;20191;-74
2021/05/18 11:01:35;;;;;;;1.30;0.70;;;;;;;20.99;43.61;97605.88;8286172;28;20198;-76
2021/05/18 11:05:38;;;;;;;1.70;0.80;;;;;;;20.97;39.99;97599.91;8289332;28;20214;-74
2021/05/18 11:09:40;;;;;;;1.20;0.60;;;;;;;20.97;40.69;97590.22;8284717;28;20234;-73
2021/05/18 11:13:53;;;;;;;1.87;0.70;;;;;;;20.48;38.77;97592.88;8287640;28;20230;-73
2021/05/18 11:17:56;;;;;;;7.20;1.13;;;;;;;20.55;41.23;97593.16;8285718;28;20205;-73
2021/05/18 11:22:00;;;;;;;4.90;0.80;;;;;;;20.84;41.58;97587.06;8286990;28;20225;-73
2021/05/18 11:26:04;;;;;;;33.37;2.80;;;;;;;19.71;41.64;97588.38;8287976;28;20204;-72
2021/05/18 11:30:09;;;;;;;13.23;1.50;;;;;;;20.68;39.31;97590.28;8287710;28;20205;-72
2021/05/18 11:34:11;;;;;;;2.77;0.97;;;;;;;20.89;38.52;97583.03;8287685;28;20230;-73
2021/05/18 11:38:15;;;;;;;1.90;0.90;;;;;;;21.21;39.04;97575.72;8286717;28;20316;-73
2021/05/18 11:42:27;;;;;;;4.27;1.13;;;;;;;21.13;38.95;97579.06;8286068;28;20205;-73
2021/05/18 11:46:33;;;;;;;2.90;1.13;;;;;;;20.63;38.74;97579.34;8261711;28;20231;-72
2021/05/18 11:50:35;;;;;;;5.57;1.10;;;;;;;19.90;40.53;97577.91;8287165;28;20209;-71
2021/05/18 11:54:39;;;;;;;3.90;1.07;;;;;;;20.05;42.02;97583.63;8285589;28;20229;-74
2021/05/18 11:58:41;;;;;;;4.63;1.10;;;;;;;20.23;38.86;97588.19;8286824;28;20209;-73
2021/05/18 12:02:44;;;;;;;2.17;0.90;;;;;;;20.23;36.73;97588.19;8285844;28;20201;-72
2021/05/18 12:06:57;;;;;;;2.27;0.80;;;;;;;21.04;34.66;97586.03;8284927;28;20234;-72
2021/05/18 12:11:14;;;;;;;5.80;1.00;;;;;;;20.23;35.38;97582.94;8286489;28;20203;-72
2021/05/18 12:15:17;;;;;;;2.73;0.90;;;;;;;20.69;36.97;97587.50;8285326;28;20273;-72
2021/05/18 12:19:20;;;;;;;2.90;0.90;;;;;;;21.26;36.49;97587.47;8284741;28;20206;-72
2021/05/18 12:23:23;;;;;;;1.23;0.70;;;;;;;20.03;36.04;97579.44;8283395;28;20205;-73
2021/05/18 12:27:26;;;;;;;2.67;0.93;;;;;;;20.30;36.74;97578.78;8284912;28;20202;-73
2021/05/18 12:31:32;;;;;;;6.67;1.10;;;;;;;20.37;36.96;97572.00;8284460;28;20229;-73
2021/05/18 12:35:36;;;;;;;2.07;1.00;;;;;;;21.39;35.45;97566.06;8283098;28;20193;-73
2021/05/18 12:39:42;;;;;;;3.80;0.70;;;;;;;20.80;34.25;97568.09;8284825;28;20205;-74
2021/05/18 12:43:45;;;;;;;2.60;0.83;;;;;;;20.25;36.58;97575.72;8285525;28;20531;-75
2021/05/18 12:47:51;;;;;;;3.20;0.80;;;;;;;19.90;37.61;97567.41;8286097;28;20194;-73
2021/05/18 12:52:07;;;;;;;2.77;1.00;;;;;;;19.85;38.81;97566.16;8300033;28;20228;-74
2021/05/18 12:56:15;;;;;;;2.77;0.90;;;;;;;20.36;38.11;97565.06;8284671;28;20198;-75
2021/05/18 13:00:22;;;;;;;1.83;0.80;;;;;;;21.05;37.58;97556.09;8283419;28;20206;-80
2021/05/18 13:04:25;;;;;;;4.47;0.80;;;;;;;21.47;37.51;97553.03;8281408;28;20226;-74
2021/05/18 13:08:33;;;;;;;6.20;1.00;;;;;;;21.47;36.19;97549.56;8283655;28;20223;-74
2021/05/18 13:12:36;;;;;;;9.03;1.30;;;;;;;21.50;37.13;97549.28;8283622;28;20218;-76
2021/05/18 13:16:38;;;;;;;1.73;0.80;;;;;;;22.05;35.36;97545.75;8285872;28;20201;-76
2021/05/18 13:20:44;;;;;;;2.00;0.80;;;;;;;22.09;33.20;97549.75;8280834;28;20214;-75
2021/05/18 13:29:15;;;;;;;2.10;0.70;;;;;;;21.75;34.83;97539.84;8281371;28;20194;-69
2021/05/18 13:33:17;;;;;;;2.10;0.67;;;;;;;21.85;33.37;97530.06;8286364;28;20294;-67
2021/05/18 13:37:19;;;;;;;4.03;0.90;;;;;;;22.05;31.85;97529.94;8283904;28;20207;-67
2021/05/18 13:41:42;;;;;;;11.20;1.40;;;;;;;21.51;34.45;97534.31;8284251;28;20218;-68
2021/05/18 13:45:44;;;;;;;4.53;0.83;;;;;;;21.12;33.22;97522.13;8284281;28;20214;-68
2021/05/18 13:49:47;;;;;;;7.23;1.40;;;;;;;20.74;35.68;97520.47;8290056;28;20204;-68
2021/05/18 13:53:57;;;;;;;4.30;1.10;;;;;;;20.24;34.76;97524.13;8283362;28;20245;-68
2021/05/18 13:58:00;;;;;;;10.03;1.30;;;;;;;19.92;36.77;97514.72;8283480;28;20551;-68
2021/05/18 14:02:03;;;;;;;5.50;1.33;;;;;;;19.53;37.91;97525.13;8282981;28;20243;-67
2021/05/18 14:06:05;;;;;;;6.40;1.00;;;;;;;19.54;38.14;97534.69;8283268;28;20222;-68
2021/05/18 14:10:09;;;;;;;5.60;1.33;;;;;;;19.66;38.29;97528.34;8283282;28;20344;-67
2021/05/18 14:14:12;;;;;;;5.20;1.10;;;;;;;20.03;38.59;97527.72;8282417;28;20249;-66
2021/05/18 14:18:15;;;;;;;3.10;1.00;;;;;;;20.80;37.36;97519.91;8282888;28;20264;-69
2021/05/18 14:22:18;;;;;;;8.13;1.13;;;;;;;20.91;36.31;97511.84;8280417;28;20222;-69
2021/05/18 14:26:21;;;;;;;9.93;1.37;;;;;;;20.83;36.20;97507.28;8282918;28;20203;-70
2021/05/18 14:30:27;;;;;;;2.83;1.00;;;;;;;20.82;34.49;97512.69;8288028;28;20265;-70
2021/05/18 14:34:29;;;;;;;3.63;1.00;;;;;;;20.95;33.52;97509.75;8288717;28;20472;-68
2021/05/18 14:38:32;;;;;;;4.40;1.10;;;;;;;21.05;35.63;97508.72;8289086;28;20210;-70
2021/05/18 14:47:08;;;;;;;5.23;1.00;;;;;;;20.88;32.74;97518.19;8257380;28;20366;-67
2021/05/18 14:55:33;;;;;;;4.73;1.33;;;;;;;19.71;37.82;97506.94;8286436;28;20545;-70
2021/05/18 14:59:35;;;;;;;8.33;1.00;;;;;;;18.88;38.90;97528.09;8287756;28;20198;-67
2021/05/18 15:03:38;;;;;;;6.67;1.23;;;;;;;18.68;40.39;97550.75;8287930;28;20208;-67
2021/05/18 15:07:41;;;;;;;5.03;1.10;;;;;;;18.61;40.29;97562.69;8287718;28;20241;-68
2021/05/18 15:11:44;;;;;;;3.37;0.90;;;;;;;18.02;44.27;97571.91;8287236;28;20201;-68
2021/05/18 15:15:47;;;;;;;3.93;1.07;;;;;;;18.06;45.10;97569.88;8287396;28;20399;-68
2021/05/18 15:19:52;;;;;;;7.13;1.10;;;;;;;18.66;44.39;97563.16;8287236;28;20500;-68
2021/05/18 15:23:54;;;;;;;7.47;1.20;;;;;;;19.42;44.08;97556.75;8287312;28;20237;-68
2021/05/18 15:27:57;;;;;;;10.60;0.93;;;;;;;19.60;44.36;97555.16;8287384;28;20201;-69
2021/05/18 15:31:59;;;;;;;6.00;0.93;;;;;;;19.86;45.74;97552.88;8286664;28;20222;-70
2021/05/18 15:36:03;;;;;;;10.83;1.10;;;;;;;19.90;43.45;97550.81;8285021;28;20540;-70
2021/05/18 15:40:07;;;;;;;5.93;1.30;;;;;;;19.75;43.05;97545.13;8287420;28;20212;-70
2021/05/18 15:44:09;;;;;;;7.83;1.23;;;;;;;20.04;42.18;97554.84;8286423;28;20261;-70
2021/05/18 15:48:12;;;;;;;5.57;0.90;;;;;;;19.60;40.79;97552.53;8286230;28;20209;-69
2021/05/18 15:52:15;;;;;;;3.33;0.90;;;;;;;19.24;40.89;97559.19;8287264;28;20221;-69
2021/05/18 15:56:19;;;;;;;2.80;0.50;;;;;;;19.17;39.57;97558.88;8286013;28;20201;-69
2021/05/18 16:00:22;;;;;;;2.90;0.90;;;;;;;19.59;40.96;97552.66;8285812;28;20406;-68
2021/05/18 16:04:25;;;;;;;5.43;0.70;;;;;;;19.61;38.24;97551.56;8285882;28;20288;-73
2021/05/18 16:12:49;;;;;;;4.00;0.67;;;;;;;19.49;36.50;97542.13;8282994;28;20299;-74
2021/05/18 16:16:51;;;;;;;1.03;0.50;;;;;;;19.56;38.90;97545.88;8285015;28;20289;-73
2021/05/18 16:20:54;;;;;;;1.23;0.50;;;;;;;19.43;37.18;97545.31;8285030;28;20500;-73
2021/05/18 16:24:57;;;;;;;0.90;0.43;;;;;;;19.68;37.53;97536.91;8285027;28;20213;-73
2021/05/18 16:29:00;;;;;;;1.63;0.50;;;;;;;19.05;35.82;97541.56;8284901;28;20205;-74
2021/05/18 16:33:03;;;;;;;1.27;0.50;;;;;;;19.22;37.63;97546.19;8285000;28;20229;-73
2021/05/18 16:37:05;;;;;;;1.07;0.50;;;;;;;19.22;36.26;97540.94;8285349;28;20392;-73
2021/05/18 16:41:09;;;;;;;1.10;0.50;;;;;;;19.30;38.40;97538.47;8284789;28;20200;-74
2021/05/18 16:45:12;;;;;;;1.80;0.63;;;;;;;19.20;38.95;97542.06;8284381;28;20527;-73
2021/05/18 16:49:15;;;;;;;3.60;0.60;;;;;;;19.22;38.46;97548.00;8286366;28;20204;-73
2021/05/18 16:53:19;;;;;;;3.47;0.70;;;;;;;19.23;38.15;97540.00;8287268;28;20232;-74
2021/05/18 16:57:22;;;;;;;2.63;0.63;;;;;;;19.16;38.04;97545.91;8283605;28;20500;-74
2021/05/18 17:01:25;;;;;;;6.30;0.60;;;;;;;18.90;39.69;97549.78;8284119;28;20200;-73
2021/05/18 17:05:48;;;;;;;1.47;0.53;;;;;;;18.37;37.85;97555.06;8285855;28;20218;-69
2021/05/18 17:09:51;;;;;;;1.23;0.70;;;;;;;18.38;37.82;97548.06;8286067;28;20230;-70
2021/05/18 17:13:54;;;;;;;1.07;0.60;;;;;;;18.29;38.28;97549.66;8286223;28;20224;-70
2021/05/18 17:17:57;;;;;;;1.33;0.60;;;;;;;18.23;38.44;97542.28;8285746;28;20194;-70
2021/05/18 17:21:59;;;;;;;1.57;0.70;;;;;;;17.94;37.98;97542.88;8282129;28;20401;-69
2021/05/18 17:26:02;;;;;;;1.33;0.47;;;;;;;17.90;36.98;97541.47;8284003;28;20194;-69
2021/05/18 17:30:08;;;;;;;0.50;0.50;;;;;;;17.94;37.84;97542.88;8284016;28;20496;-70
2021/05/18 17:34:12;;;;;;;1.00;0.50;;;;;;;17.73;37.67;97543.63;8284484;28;20225;-69
2021/05/18 17:38:14;;;;;;;0.30;0.30;;;;;;;17.58;37.30;97534.38;8297363;28;20197;-69
2021/05/18 17:42:19;;;;;;;0.50;0.40;;;;;;;17.36;38.01;97537.84;8316584;28;20232;-69
2021/05/18 17:46:24;;;;;;;1.80;0.43;;;;;;;17.46;39.06;97541.44;8316885;28;20205;-69
2021/05/18 17:50:27;;;;;;;2.70;0.73;;;;;;;17.30;38.81;97547.03;8316771;28;20451;-69
2021/05/18 17:54:29;;;;;;;1.00;0.70;;;;;;;17.25;39.38;97554.41;8316471;28;20224;-70
2021/05/18 17:58:32;;;;;;;2.70;1.20;;;;;;;17.20;39.67;97559.16;8316566;28;20201;-70
2021/05/18 18:02:35;;;;;;;3.43;1.50;;;;;;;17.19;39.98;97562.72;8316029;28;20458;-71
2021/05/18 18:06:37;;;;;;;1.33;0.90;;;;;;;17.22;40.42;97561.69;8290130;28;20264;-69
2021/05/18 18:10:47;;;;;;;1.20;0.60;;;;;;;17.21;40.40;97566.09;8290287;28;20213;-79
2021/05/18 18:14:49;;;;;;;1.23;0.70;;;;;;;17.07;41.61;97582.00;8290196;28;20230;-69
2021/05/18 18:18:52;;;;;;;1.67;1.40;;;;;;;16.98;42.70;97587.00;8289674;28;20206;-70
2021/05/18 18:22:56;;;;;;;3.23;1.40;;;;;;;16.98;42.62;97589.63;8290215;28;20365;-70
2021/05/18 18:26:59;;;;;;;2.20;0.93;;;;;;;16.89;42.72;97597.34;8289719;28;20252;-70
2021/05/18 18:31:01;;;;;;;3.07;1.10;;;;;;;16.86;43.95;97598.38;8289498;28;20621;-70
2021/05/18 18:35:06;;;;;;;2.13;0.90;;;;;;;16.73;43.93;97592.38;8289363;28;20229;-70
2021/05/18 18:39:08;;;;;;;1.30;0.77;;;;;;;16.76;44.62;97605.22;8290217;28;20201;-70
2021/05/18 18:43:12;;;;;;;2.30;1.10;;;;;;;16.51;44.52;97596.59;8289237;28;20217;-70
2021/05/18 18:47:16;;;;;;;1.77;0.70;;;;;;;16.60;44.75;97609.00;8289069;28;20198;-70
2021/05/18 18:51:22;;;;;;;3.30;1.00;;;;;;;16.49;45.06;97614.19;8289149;28;20375;-70
2021/05/18 18:55:25;;;;;;;1.47;0.80;;;;;;;16.55;45.78;97618.94;8288053;28;20225;-71
2021/05/18 18:59:28;;;;;;;1.90;0.90;;;;;;;16.48;46.61;97620.34;8288292;28;20406;-70
2021/05/18 19:03:33;;;;;;;3.83;1.30;;;;;;;16.50;46.70;97633.31;8294713;28;20483;-70
2021/05/18 19:07:41;;;;;;;2.87;1.00;;;;;;;16.49;46.47;97635.09;8320845;28;20233;-70
2021/05/18 19:16:00;;;;;;;2.53;1.00;;;;;;;16.42;47.38;97650.38;8320320;28;20213;-72
2021/05/18 19:20:03;;;;;;;1.93;0.90;;;;;;;16.38;47.38;97658.56;8320312;28;20268;-73
2021/05/18 19:24:08;;;;;;;2.20;1.00;;;;;;;16.25;48.03;97657.78;8320261;28;20209;-72
2021/05/18 19:28:12;;;;;;;1.20;0.90;;;;;;;16.25;48.40;97666.44;8320180;28;20388;-72
2021/05/18 19:32:15;;;;;;;3.40;1.20;;;;;;;16.15;49.28;97665.47;8320450;28;20220;-72
2021/05/18 19:36:36;;;;;;;1.53;0.93;;;;;;;16.14;49.81;97671.63;8319942;28;20299;-71
2021/05/18 19:45:13;;;;;;;1.60;0.90;;;;;;;15.77;51.58;97705.56;8320103;28;20205;-72
2021/05/18 19:49:20;;;;;;;5.77;1.57;;;;;;;15.29;55.46;97700.97;8301467;28;20276;-72
2021/05/18 19:53:24;;;;;;;3.57;1.23;;;;;;;15.35;55.90;97691.91;8287390;28;20229;-74
2021/05/18 19:57:31;;;;;;;2.17;0.87;;;;;;;15.29;56.59;97702.72;8287062;28;20209;-73
2021/05/18 20:10:34;;;;;;;2.73;1.00;;;;;;;15.29;57.81;97706.19;8232161;28;20201;-73
2021/05/18 20:15:06;;;;;;;2.07;0.80;;;;;;;15.27;58.16;97704.59;8286432;28;20230;-73
2021/05/18 20:19:27;;;;;;;1.73;0.90;;;;;;;15.25;58.98;97705.56;8286068;28;20190;-73
2021/05/18 20:23:30;;;;;;;1.87;0.90;;;;;;;15.12;58.18;97707.31;8286569;28;20190;-74
2021/05/18 20:27:32;;;;;;;2.03;0.90;;;;;;;15.08;59.18;97700.66;8285001;28;20201;-73
2021/05/18 20:31:35;;;;;;;1.73;0.87;;;;;;;15.10;59.00;97701.38;8285729;28;20208;-72
2021/05/18 20:35:43;;;;;;;4.10;1.00;;;;;;;15.09;57.84;97702.28;8285521;28;20229;-73
2021/05/18 20:39:46;;;;;;;3.33;1.10;;;;;;;15.15;57.81;97711.47;8285565;28;20209;-72
2021/05/18 20:43:50;;;;;;;2.10;1.23;;;;;;;15.12;59.45;97706.50;8285882;28;20213;-72
2021/05/18 20:47:53;;;;;;;3.33;1.10;;;;;;;15.09;59.43;97702.28;8285218;28;20424;-71
2021/05/18 20:51:58;;;;;;;2.93;1.00;;;;;;;15.03;59.49;97702.72;8284904;28;20198;-75
2021/05/18 20:56:00;;;;;;;2.43;1.20;;;;;;;15.01;58.73;97702.81;8284908;28;20238;-74
2021/05/18 21:00:03;;;;;;;2.03;1.10;;;;;;;14.99;58.86;97703.84;8284792;28;20201;-69
2021/05/18 21:04:07;;;;;;;1.57;0.80;;;;;;;14.99;58.14;97707.28;8284709;28;20220;-72
2021/05/18 21:08:32;;;;;;;2.23;1.00;;;;;;;14.97;58.13;97695.31;8284808;28;20582;-71
2021/05/18 21:12:41;;;;;;;1.47;1.20;;;;;;;14.82;59.44;97703.19;8285310;28;20202;-72
2021/05/18 21:16:43;;;;;;;3.70;1.00;;;;;;;14.74;59.53;97702.88;8285202;28;20508;-73
2021/05/18 21:20:47;;;;;;;1.90;1.10;;;;;;;14.75;59.54;97704.53;8284993;28;20497;-73
2021/05/18 21:24:49;;;;;;;2.13;0.90;;;;;;;14.67;59.74;97714.63;8284774;28;20519;-73
2021/05/18 21:28:51;;;;;;;1.90;1.00;;;;;;;14.66;59.82;97708.59;8284517;28;20400;-73
2021/05/18 21:32:54;;;;;;;2.97;1.10;;;;;;;14.58;60.04;97710.84;8284906;28;20209;-71
2021/05/18 21:36:57;;;;;;;1.73;1.03;;;;;;;14.57;60.35;97714.38;8287737;28;20209;-72
2021/05/18 21:41:02;;;;;;;3.60;0.93;;;;;;;14.50;59.99;97714.84;8295598;28;20272;-71
2021/05/18 21:45:06;;;;;;;2.00;1.00;;;;;;;14.45;60.40;97707.34;8295017;28;20209;-72
2021/05/18 21:49:08;;;;;;;2.33;1.20;;;;;;;14.35;60.41;97708.84;8294946;28;20414;-72
2021/05/18 21:53:11;;;;;;;2.13;1.10;;;;;;;14.35;60.00;97706.25;8295075;28;20208;-73
2021/05/18 21:57:14;;;;;;;1.43;1.20;;;;;;;14.32;60.14;97701.22;8294702;28;20205;-73
2021/05/18 22:01:16;;;;;;;1.67;1.10;;;;;;;14.12;60.83;97711.13;8294969;28;20208;-78
2021/05/18 22:05:22;;;;;;;3.20;1.20;;;;;;;14.24;59.99;97701.69;8294740;28;20232;-77
2021/05/18 22:09:28;;;;;;;4.83;1.07;;;;;;;14.23;60.28;97703.47;8295275;28;20229;-80
2021/05/18 22:13:36;;;;;;;1.87;0.97;;;;;;;14.16;59.78;97703.97;8294654;28;20229;-79
2021/05/18 22:26:37;;;;;;;3.47;1.33;;;;;;;13.90;59.77;97719.47;8277859;28;20206;-80
2021/05/18 22:30:39;;;;;;;4.80;1.27;;;;;;;13.82;60.37;97714.72;8294186;28;20202;-80
2021/05/18 22:34:41;;;;;;;1.57;1.10;;;;;;;13.85;59.82;97721.50;8294006;28;20240;-81
2021/05/18 22:38:44;;;;;;;3.77;1.20;;;;;;;13.79;60.21;97720.09;8294135;28;20205;-80
2021/05/18 22:42:47;;;;;;;2.80;1.30;;;;;;;13.71;59.76;97724.97;8294482;28;20201;-77
2021/05/18 22:46:49;;;;;;;5.63;1.30;;;;;;;13.74;59.26;97718.72;8294503;28;20438;-79
2021/05/18 22:50:52;;;;;;;1.50;1.10;;;;;;;13.70;59.09;97725.88;8288213;28;20399;-77
2021/05/18 22:54:54;;;;;;;1.90;0.90;;;;;;;13.67;59.03;97719.09;8288891;28;20244;-78
2021/05/18 22:58:57;;;;;;;4.30;1.33;;;;;;;13.58;59.05;97726.63;8288915;28;20210;-78
2021/05/18 23:03:08;;;;;;;2.03;0.90;;;;;;;13.46;59.26;97722.97;8288814;28;20201;-78
2021/05/18 23:07:10;;;;;;;1.93;1.20;;;;;;;13.41;59.61;97723.25;8288291;28;20241;-78
2021/05/18 23:11:12;;;;;;;1.43;1.00;;;;;;;13.43;59.11;97721.41;8288252;28;20210;-78
2021/05/18 23:15:16;;;;;;;2.00;1.30;;;;;;;13.41;59.14;97725.88;8288411;28;20229;-78
2021/05/18 23:19:19;;;;;;;2.60;1.20;;;;;;;13.35;58.71;97722.81;8288579;28;20202;-78
2021/05/18 23:23:21;;;;;;;1.87;1.20;;;;;;;13.26;58.78;97724.16;8288264;28;20201;-80
2021/05/18 23:27:24;;;;;;;3.47;1.40;;;;;;;13.17;58.99;97720.31;8287974;28;20515;-80
2021/05/18 23:31:27;;;;;;;4.53;1.20;;;;;;;13.20;58.66;97721.91;8288227;28;20206;-80
2021/05/18 23:35:29;;;;;;;2.67;1.30;;;;;;;13.14;59.03;97714.47;8287639;28;20236;-79
2021/05/18 23:39:32;;;;;;;2.80;1.10;;;;;;;13.04;58.44;97712.41;8287660;28;20206;-78
2021/05/18 23:43:35;;;;;;;6.60;1.20;;;;;;;13.06;58.18;97715.75;8287233;28;20272;-79
2021/05/18 23:47:38;;;;;;;1.67;1.20;;;;;;;12.91;58.29;97714.88;8287416;28;20220;-80
2021/05/18 23:51:43;;;;;;;2.63;1.30;;;;;;;12.80;58.24;97712.06;8287133;28;20202;-82
2021/05/18 23:55:46;;;;;;;2.00;1.10;;;;;;;12.85;58.76;97716.97;8286939;28;20229;-79
2021/05/18 23:59:48;;;;;;;2.23;1.17;;;;;;;12.85;58.21;97719.56;8286794;28;20473;-78
